sensor_id;sensor_type;location;lat;lon;timestamp;P1;durP1;ratioP1;P2;durP2;ratioP2
537;SDS011;254;48.524;8.926;2022-11-20T00:00:03;3.0;;;1.8;;
537;SDS011;254;48.524;8.926;2022-11-20T00:01:06;2.4;;;2.0;;
537;SDS011;254;48.524;8.926;2022-11-20T00:02:02;2.7;;;2.0;;
537;SDS011;254;48.524;8.926;2022-11-20T00:03:02;2.8;;;1.9;;
537;SDS011;254;48.524;8.926;2022-11-20T00:04:02;3.5;;;2.1;;
537;SDS011;254;48.524;8.926;2022-11-20T00:05:02;3.0;;;1.8;;
537;SDS011;254;48.524;8.926;2022-11-20T00:06:03;3.6;;;2.2;;
537;SDS011;254;48.524;8.926;2022-11-20T00:07:02;3.6;;;2.2;;
537;SDS011;254;48.524;8.926;2022-11-20T00:08:02;3.8;;;2.1;;
537;SDS011;254;48.524;8.926;2022-11-20T00:09:02;4.9;;;2.5;;
537;SDS011;254;48.524;8.926;2022-11-20T00:10:03;3.6;;;2.3;;
537;SDS011;254;48.524;8.926;2022-11-20T00:11:02;4.2;;;2.5;;
537;SDS011;254;48.524;8.926;2022-11-20T00:12:02;4.1;;;2.5;;
537;SDS011;254;48.524;8.926;2022-11-20T00:13:03;4.5;;;2.7;;
537;SDS011;254;48.524;8.926;2022-11-20T00:14:02;2.9;;;2.5;;
537;SDS011;254;48.524;8.926;2022-11-20T00:15:03;3.7;;;2.6;;
537;SDS011;254;48.524;8.926;2022-11-20T00:16:04;4.6;;;2.7;;
537;SDS011;254;48.524;8.926;2022-11-20T00:17:02;3.6;;;2.6;;
537;SDS011;254;48.524;8.926;2022-11-20T00:18:02;3.5;;;2.6;;
537;SDS011;254;48.524;8.926;2022-11-20T00:19:03;3.4;;;2.9;;
537;SDS011;254;48.524;8.926;2022-11-20T00:20:02;4.3;;;2.8;;
537;SDS011;254;48.524;8.926;2022-11-20T00:21:02;3.7;;;3.2;;
537;SDS011;254;48.524;8.926;2022-11-20T00:22:02;3.4;;;3.1;;
537;SDS011;254;48.524;8.926;2022-11-20T00:23:02;3.1;;;2.8;;
537;SDS011;254;48.524;8.926;2022-11-20T00:24:02;3.9;;;3.1;;
537;SDS011;254;48.524;8.926;2022-11-20T00:25:03;3.8;;;3.1;;
537;SDS011;254;48.524;8.926;2022-11-20T00:26:02;4.3;;;3.1;;
537;SDS011;254;48.524;8.926;2022-11-20T00:27:02;4.3;;;3.6;;
537;SDS011;254;48.524;8.926;2022-11-20T00:28:02;4.9;;;3.4;;
537;SDS011;254;48.524;8.926;2022-11-20T00:29:03;4.4;;;3.3;;
537;SDS011;254;48.524;8.926;2022-11-20T00:30:02;4.5;;;3.5;;
537;SDS011;254;48.524;8.926;2022-11-20T00:31:03;5.1;;;3.2;;
537;SDS011;254;48.524;8.926;2022-11-20T00:32:02;4.0;;;3.3;;
537;SDS011;254;48.524;8.926;2022-11-20T00:33:02;4.0;;;3.6;;
537;SDS011;254;48.524;8.926;2022-11-20T00:34:02;5.0;;;3.5;;
537;SDS011;254;48.524;8.926;2022-11-20T00:35:03;4.6;;;3.9;;
537;SDS011;254;48.524;8.926;2022-11-20T00:36:03;3.3;;;3.0;;
537;SDS011;254;48.524;8.926;2022-11-20T00:37:02;6.2;;;3.4;;
537;SDS011;254;48.524;8.926;2022-11-20T00:38:03;4.3;;;3.5;;
537;SDS011;254;48.524;8.926;2022-11-20T00:39:01;4.3;;;3.4;;
537;SDS011;254;48.524;8.926;2022-11-20T00:40:02;4.2;;;3.6;;
537;SDS011;254;48.524;8.926;2022-11-20T00:41:03;3.8;;;3.4;;
537;SDS011;254;48.524;8.926;2022-11-20T00:42:02;5.6;;;3.2;;
537;SDS011;254;48.524;8.926;2022-11-20T00:43:02;4.0;;;3.6;;
537;SDS011;254;48.524;8.926;2022-11-20T00:44:03;5.4;;;3.6;;
537;SDS011;254;48.524;8.926;2022-11-20T00:45:02;4.2;;;3.4;;
537;SDS011;254;48.524;8.926;2022-11-20T00:46:03;5.1;;;3.1;;
537;SDS011;254;48.524;8.926;2022-11-20T00:47:02;5.1;;;3.2;;
537;SDS011;254;48.524;8.926;2022-11-20T00:48:02;4.0;;;3.3;;
537;SDS011;254;48.524;8.926;2022-11-20T00:49:03;4.6;;;3.3;;
537;SDS011;254;48.524;8.926;2022-11-20T00:50:02;4.4;;;3.5;;
537;SDS011;254;48.524;8.926;2022-11-20T00:51:03;5.5;;;3.7;;
537;SDS011;254;48.524;8.926;2022-11-20T00:52:02;5.4;;;3.9;;
537;SDS011;254;48.524;8.926;2022-11-20T00:53:02;4.3;;;3.9;;
537;SDS011;254;48.524;8.926;2022-11-20T00:54:03;3.7;;;3.1;;
537;SDS011;254;48.524;8.926;2022-11-20T00:55:02;6.3;;;3.6;;
537;SDS011;254;48.524;8.926;2022-11-20T00:56:03;4.1;;;3.7;;
537;SDS011;254;48.524;8.926;2022-11-20T00:57:02;4.8;;;3.8;;
537;SDS011;254;48.524;8.926;2022-11-20T00:58:02;5.6;;;3.8;;
537;SDS011;254;48.524;8.926;2022-11-20T00:59:02;5.7;;;4.2;;
537;SDS011;254;48.524;8.926;2022-11-20T01:00:02;5.0;;;3.8;;
537;SDS011;254;48.524;8.926;2022-11-20T01:01:02;4.5;;;4.0;;
537;SDS011;254;48.524;8.926;2022-11-20T01:02:02;5.9;;;4.2;;
537;SDS011;254;48.524;8.926;2022-11-20T01:03:03;6.9;;;4.9;;
537;SDS011;254;48.524;8.926;2022-11-20T01:04:01;4.5;;;3.7;;
537;SDS011;254;48.524;8.926;2022-11-20T01:05:02;4.6;;;3.6;;
537;SDS011;254;48.524;8.926;2022-11-20T01:06:02;5.5;;;3.8;;
537;SDS011;254;48.524;8.926;2022-11-20T01:07:02;4.6;;;3.8;;
537;SDS011;254;48.524;8.926;2022-11-20T01:08:02;5.3;;;4.0;;
537;SDS011;254;48.524;8.926;2022-11-20T01:09:02;4.4;;;3.6;;
537;SDS011;254;48.524;8.926;2022-11-20T01:10:02;5.4;;;4.0;;
537;SDS011;254;48.524;8.926;2022-11-20T01:11:04;5.3;;;3.6;;
537;SDS011;254;48.524;8.926;2022-11-20T01:12:02;4.5;;;3.4;;
537;SDS011;254;48.524;8.926;2022-11-20T01:13:02;4.9;;;3.7;;
537;SDS011;254;48.524;8.926;2022-11-20T01:14:03;4.2;;;3.6;;
537;SDS011;254;48.524;8.926;2022-11-20T01:15:03;4.3;;;3.9;;
537;SDS011;254;48.524;8.926;2022-11-20T01:16:02;6.2;;;4.0;;
537;SDS011;254;48.524;8.926;2022-11-20T01:17:03;4.1;;;3.7;;
537;SDS011;254;48.524;8.926;2022-11-20T01:18:01;4.0;;;3.6;;
537;SDS011;254;48.524;8.926;2022-11-20T01:19:03;4.9;;;3.9;;
537;SDS011;254;48.524;8.926;2022-11-20T01:20:02;3.5;;;3.2;;
537;SDS011;254;48.524;8.926;2022-11-20T01:21:03;4.6;;;3.7;;
537;SDS011;254;48.524;8.926;2022-11-20T01:22:02;6.2;;;4.2;;
537;SDS011;254;48.524;8.926;2022-11-20T01:23:03;5.4;;;3.7;;
537;SDS011;254;48.524;8.926;2022-11-20T01:24:03;4.1;;;3.7;;
537;SDS011;254;48.524;8.926;2022-11-20T01:25:02;5.2;;;4.1;;
537;SDS011;254;48.524;8.926;2022-11-20T01:26:02;5.2;;;4.2;;
537;SDS011;254;48.524;8.926;2022-11-20T01:27:02;5.4;;;4.1;;
537;SDS011;254;48.524;8.926;2022-11-20T01:28:04;5.7;;;3.9;;
537;SDS011;254;48.524;8.926;2022-11-20T01:29:03;4.4;;;4.0;;
537;SDS011;254;48.524;8.926;2022-11-20T01:30:02;4.2;;;3.7;;
537;SDS011;254;48.524;8.926;2022-11-20T01:31:02;4.4;;;4.0;;
537;SDS011;254;48.524;8.926;2022-11-20T01:32:02;4.8;;;4.4;;
537;SDS011;254;48.524;8.926;2022-11-20T01:33:02;4.8;;;4.0;;
537;SDS011;254;48.524;8.926;2022-11-20T01:34:03;6.2;;;4.4;;
537;SDS011;254;48.524;8.926;2022-11-20T01:35:02;5.6;;;4.6;;
537;SDS011;254;48.524;8.926;2022-11-20T01:36:03;5.0;;;4.5;;
537;SDS011;254;48.524;8.926;2022-11-20T01:37:02;5.6;;;4.9;;
537;SDS011;254;48.524;8.926;2022-11-20T01:38:02;6.7;;;4.9;;
537;SDS011;254;48.524;8.926;2022-11-20T01:39:04;5.5;;;4.9;;
537;SDS011;254;48.524;8.926;2022-11-20T01:40:02;6.9;;;5.0;;
537;SDS011;254;48.524;8.926;2022-11-20T01:41:02;6.7;;;5.3;;
537;SDS011;254;48.524;8.926;2022-11-20T01:42:02;5.4;;;4.7;;
537;SDS011;254;48.524;8.926;2022-11-20T01:43:09;4.8;;;4.3;;
537;SDS011;254;48.524;8.926;2022-11-20T01:44:03;5.4;;;4.4;;
537;SDS011;254;48.524;8.926;2022-11-20T01:45:42;5.4;;;4.4;;
537;SDS011;254;48.524;8.926;2022-11-20T01:46:04;4.5;;;4.0;;
537;SDS011;254;48.524;8.926;2022-11-20T01:47:02;5.8;;;4.6;;
537;SDS011;254;48.524;8.926;2022-11-20T01:48:01;5.7;;;4.3;;
537;SDS011;254;48.524;8.926;2022-11-20T01:49:03;6.1;;;4.5;;
537;SDS011;254;48.524;8.926;2022-11-20T01:50:04;7.7;;;4.5;;
537;SDS011;254;48.524;8.926;2022-11-20T01:51:02;5.9;;;4.9;;
537;SDS011;254;48.524;8.926;2022-11-20T01:52:03;5.5;;;4.6;;
537;SDS011;254;48.524;8.926;2022-11-20T01:53:03;6.1;;;5.1;;
537;SDS011;254;48.524;8.926;2022-11-20T01:54:04;7.0;;;5.1;;
537;SDS011;254;48.524;8.926;2022-11-20T01:55:04;7.0;;;4.8;;
537;SDS011;254;48.524;8.926;2022-11-20T01:56:02;7.5;;;5.3;;
537;SDS011;254;48.524;8.926;2022-11-20T01:57:02;6.3;;;4.6;;
537;SDS011;254;48.524;8.926;2022-11-20T01:58:02;5.5;;;4.8;;
537;SDS011;254;48.524;8.926;2022-11-20T01:59:03;4.8;;;4.3;;
537;SDS011;254;48.524;8.926;2022-11-20T02:00:04;5.9;;;4.5;;
537;SDS011;254;48.524;8.926;2022-11-20T02:01:02;5.2;;;4.4;;
537;SDS011;254;48.524;8.926;2022-11-20T02:02:02;5.2;;;4.7;;
537;SDS011;254;48.524;8.926;2022-11-20T02:03:04;6.1;;;4.4;;
537;SDS011;254;48.524;8.926;2022-11-20T02:04:03;5.4;;;4.5;;
537;SDS011;254;48.524;8.926;2022-11-20T02:05:03;4.8;;;4.3;;
537;SDS011;254;48.524;8.926;2022-11-20T02:06:04;5.1;;;4.3;;
537;SDS011;254;48.524;8.926;2022-11-20T02:07:02;5.4;;;4.9;;
537;SDS011;254;48.524;8.926;2022-11-20T02:08:02;6.0;;;4.5;;
537;SDS011;254;48.524;8.926;2022-11-20T02:09:02;6.4;;;4.3;;
537;SDS011;254;48.524;8.926;2022-11-20T02:10:03;5.9;;;5.1;;
537;SDS011;254;48.524;8.926;2022-11-20T02:11:02;6.9;;;4.8;;
537;SDS011;254;48.524;8.926;2022-11-20T02:12:02;5.5;;;4.5;;
537;SDS011;254;48.524;8.926;2022-11-20T02:13:02;4.9;;;4.3;;
537;SDS011;254;48.524;8.926;2022-11-20T02:14:02;5.0;;;4.5;;
537;SDS011;254;48.524;8.926;2022-11-20T02:15:02;4.8;;;4.3;;
537;SDS011;254;48.524;8.926;2022-11-20T02:16:02;7.1;;;4.5;;
537;SDS011;254;48.524;8.926;2022-11-20T02:17:02;5.6;;;4.3;;
537;SDS011;254;48.524;8.926;2022-11-20T02:18:03;5.9;;;4.2;;
537;SDS011;254;48.524;8.926;2022-11-20T02:19:04;5.6;;;4.1;;
537;SDS011;254;48.524;8.926;2022-11-20T02:20:03;5.0;;;4.0;;
537;SDS011;254;48.524;8.926;2022-11-20T02:21:03;4.9;;;4.2;;
537;SDS011;254;48.524;8.926;2022-11-20T02:22:04;4.4;;;4.0;;
537;SDS011;254;48.524;8.926;2022-11-20T02:23:03;6.8;;;4.0;;
537;SDS011;254;48.524;8.926;2022-11-20T02:24:02;5.0;;;3.9;;
537;SDS011;254;48.524;8.926;2022-11-20T02:25:02;5.0;;;4.1;;
537;SDS011;254;48.524;8.926;2022-11-20T02:26:02;4.0;;;3.5;;
537;SDS011;254;48.524;8.926;2022-11-20T02:27:03;4.7;;;3.5;;
537;SDS011;254;48.524;8.926;2022-11-20T02:28:02;4.5;;;3.7;;
537;SDS011;254;48.524;8.926;2022-11-20T02:29:03;4.7;;;3.4;;
537;SDS011;254;48.524;8.926;2022-11-20T02:30:04;4.5;;;3.6;;
537;SDS011;254;48.524;8.926;2022-11-20T02:31:02;4.8;;;3.9;;
537;SDS011;254;48.524;8.926;2022-11-20T02:32:02;5.3;;;3.6;;
537;SDS011;254;48.524;8.926;2022-11-20T02:33:02;4.4;;;3.6;;
537;SDS011;254;48.524;8.926;2022-11-20T02:34:02;3.8;;;3.4;;
537;SDS011;254;48.524;8.926;2022-11-20T02:35:06;4.3;;;3.7;;
537;SDS011;254;48.524;8.926;2022-11-20T02:36:02;5.2;;;3.8;;
537;SDS011;254;48.524;8.926;2022-11-20T02:37:02;4.5;;;3.8;;
537;SDS011;254;48.524;8.926;2022-11-20T02:38:02;4.0;;;3.6;;
537;SDS011;254;48.524;8.926;2022-11-20T02:39:02;4.3;;;3.3;;
537;SDS011;254;48.524;8.926;2022-11-20T02:40:02;5.3;;;3.6;;
537;SDS011;254;48.524;8.926;2022-11-20T02:41:02;4.4;;;4.0;;
537;SDS011;254;48.524;8.926;2022-11-20T02:42:02;4.0;;;3.6;;
537;SDS011;254;48.524;8.926;2022-11-20T02:43:02;4.5;;;3.6;;
537;SDS011;254;48.524;8.926;2022-11-20T02:44:03;5.8;;;3.9;;
537;SDS011;254;48.524;8.926;2022-11-20T02:45:02;6.4;;;3.6;;
537;SDS011;254;48.524;8.926;2022-11-20T02:46:03;3.9;;;3.5;;
537;SDS011;254;48.524;8.926;2022-11-20T02:47:02;4.3;;;3.4;;
537;SDS011;254;48.524;8.926;2022-11-20T02:48:02;4.6;;;3.5;;
537;SDS011;254;48.524;8.926;2022-11-20T02:49:03;4.9;;;3.6;;
537;SDS011;254;48.524;8.926;2022-11-20T02:50:02;4.1;;;3.6;;
537;SDS011;254;48.524;8.926;2022-11-20T02:51:02;5.2;;;3.3;;
537;SDS011;254;48.524;8.926;2022-11-20T02:52:03;4.8;;;3.6;;
537;SDS011;254;48.524;8.926;2022-11-20T02:53:01;5.2;;;3.7;;
537;SDS011;254;48.524;8.926;2022-11-20T02:54:02;3.9;;;3.5;;
537;SDS011;254;48.524;8.926;2022-11-20T02:55:03;4.5;;;3.8;;
537;SDS011;254;48.524;8.926;2022-11-20T02:56:02;4.2;;;3.6;;
537;SDS011;254;48.524;8.926;2022-11-20T02:57:03;5.1;;;3.6;;
537;SDS011;254;48.524;8.926;2022-11-20T02:58:02;4.1;;;3.7;;
537;SDS011;254;48.524;8.926;2022-11-20T02:59:02;4.6;;;3.5;;
537;SDS011;254;48.524;8.926;2022-11-20T03:00:03;4.0;;;3.4;;
537;SDS011;254;48.524;8.926;2022-11-20T03:01:02;4.1;;;3.5;;
537;SDS011;254;48.524;8.926;2022-11-20T03:02:02;4.2;;;3.4;;
537;SDS011;254;48.524;8.926;2022-11-20T03:03:02;5.1;;;3.6;;
537;SDS011;254;48.524;8.926;2022-11-20T03:04:03;4.0;;;3.3;;
537;SDS011;254;48.524;8.926;2022-11-20T03:05:02;4.5;;;3.9;;
537;SDS011;254;48.524;8.926;2022-11-20T03:06:02;5.3;;;3.5;;
537;SDS011;254;48.524;8.926;2022-11-20T03:07:02;6.5;;;3.5;;
537;SDS011;254;48.524;8.926;2022-11-20T03:08:02;6.4;;;3.8;;
537;SDS011;254;48.524;8.926;2022-11-20T03:09:01;5.3;;;3.8;;
537;SDS011;254;48.524;8.926;2022-11-20T03:10:02;3.9;;;3.3;;
537;SDS011;254;48.524;8.926;2022-11-20T03:11:04;5.0;;;3.3;;
537;SDS011;254;48.524;8.926;2022-11-20T03:12:02;4.2;;;3.6;;
537;SDS011;254;48.524;8.926;2022-11-20T03:13:02;3.8;;;3.2;;
537;SDS011;254;48.524;8.926;2022-11-20T03:14:03;3.2;;;2.9;;
537;SDS011;254;48.524;8.926;2022-11-20T03:15:03;4.7;;;3.2;;
537;SDS011;254;48.524;8.926;2022-11-20T03:16:06;4.9;;;3.3;;
537;SDS011;254;48.524;8.926;2022-11-20T03:17:01;4.5;;;3.1;;
537;SDS011;254;48.524;8.926;2022-11-20T03:18:02;4.0;;;3.2;;
537;SDS011;254;48.524;8.926;2022-11-20T03:19:02;3.6;;;3.1;;
537;SDS011;254;48.524;8.926;2022-11-20T03:20:03;3.8;;;3.4;;
537;SDS011;254;48.524;8.926;2022-11-20T03:21:02;4.3;;;3.0;;
537;SDS011;254;48.524;8.926;2022-11-20T03:22:02;5.2;;;3.5;;
537;SDS011;254;48.524;8.926;2022-11-20T03:23:02;4.4;;;3.4;;
537;SDS011;254;48.524;8.926;2022-11-20T03:24:04;3.0;;;2.7;;
537;SDS011;254;48.524;8.926;2022-11-20T03:25:02;4.3;;;3.2;;
537;SDS011;254;48.524;8.926;2022-11-20T03:26:10;4.3;;;3.2;;
537;SDS011;254;48.524;8.926;2022-11-20T03:27:03;3.7;;;3.1;;
537;SDS011;254;48.524;8.926;2022-11-20T03:28:02;5.1;;;3.5;;
537;SDS011;254;48.524;8.926;2022-11-20T03:29:03;4.3;;;3.5;;
537;SDS011;254;48.524;8.926;2022-11-20T03:30:02;3.5;;;3.1;;
537;SDS011;254;48.524;8.926;2022-11-20T03:31:07;4.5;;;2.9;;
537;SDS011;254;48.524;8.926;2022-11-20T03:32:02;3.8;;;2.8;;
537;SDS011;254;48.524;8.926;2022-11-20T03:33:02;4.6;;;3.0;;
537;SDS011;254;48.524;8.926;2022-11-20T03:34:03;4.8;;;3.1;;
537;SDS011;254;48.524;8.926;2022-11-20T03:35:02;3.5;;;2.8;;
537;SDS011;254;48.524;8.926;2022-11-20T03:36:02;4.6;;;2.8;;
537;SDS011;254;48.524;8.926;2022-11-20T03:37:02;2.9;;;2.6;;
537;SDS011;254;48.524;8.926;2022-11-20T03:38:02;4.3;;;3.0;;
537;SDS011;254;48.524;8.926;2022-11-20T03:39:02;4.1;;;3.2;;
537;SDS011;254;48.524;8.926;2022-11-20T03:40:03;4.5;;;3.1;;
537;SDS011;254;48.524;8.926;2022-11-20T03:41:03;6.0;;;3.1;;
537;SDS011;254;48.524;8.926;2022-11-20T03:42:02;3.4;;;2.7;;
537;SDS011;254;48.524;8.926;2022-11-20T03:43:02;4.2;;;2.8;;
537;SDS011;254;48.524;8.926;2022-11-20T03:44:02;3.8;;;3.0;;
537;SDS011;254;48.524;8.926;2022-11-20T03:45:02;3.3;;;3.0;;
537;SDS011;254;48.524;8.926;2022-11-20T03:46:02;3.1;;;2.8;;
537;SDS011;254;48.524;8.926;2022-11-20T03:47:04;6.0;;;2.9;;
537;SDS011;254;48.524;8.926;2022-11-20T03:48:03;3.1;;;2.7;;
537;SDS011;254;48.524;8.926;2022-11-20T03:49:02;4.8;;;2.8;;
537;SDS011;254;48.524;8.926;2022-11-20T03:50:02;4.1;;;3.1;;
537;SDS011;254;48.524;8.926;2022-11-20T03:51:06;3.8;;;2.8;;
537;SDS011;254;48.524;8.926;2022-11-20T03:52:02;3.7;;;2.8;;
537;SDS011;254;48.524;8.926;2022-11-20T03:53:03;4.7;;;3.3;;
537;SDS011;254;48.524;8.926;2022-11-20T03:54:03;4.9;;;3.1;;
537;SDS011;254;48.524;8.926;2022-11-20T03:55:02;3.8;;;3.1;;
537;SDS011;254;48.524;8.926;2022-11-20T03:56:02;4.0;;;3.1;;
537;SDS011;254;48.524;8.926;2022-11-20T03:57:02;5.4;;;2.7;;
537;SDS011;254;48.524;8.926;2022-11-20T03:58:03;3.2;;;2.9;;
537;SDS011;254;48.524;8.926;2022-11-20T03:59:02;3.9;;;2.5;;
537;SDS011;254;48.524;8.926;2022-11-20T04:00:03;3.1;;;2.6;;
537;SDS011;254;48.524;8.926;2022-11-20T04:01:06;3.7;;;2.7;;
537;SDS011;254;48.524;8.926;2022-11-20T04:02:03;5.5;;;2.9;;
537;SDS011;254;48.524;8.926;2022-11-20T04:03:03;3.4;;;2.8;;
537;SDS011;254;48.524;8.926;2022-11-20T04:04:02;3.4;;;2.6;;
537;SDS011;254;48.524;8.926;2022-11-20T04:05:03;3.2;;;2.5;;
537;SDS011;254;48.524;8.926;2022-11-20T04:06:03;4.0;;;2.7;;
537;SDS011;254;48.524;8.926;2022-11-20T04:07:02;4.1;;;2.7;;
537;SDS011;254;48.524;8.926;2022-11-20T04:08:01;4.0;;;2.7;;
537;SDS011;254;48.524;8.926;2022-11-20T04:09:02;5.0;;;2.8;;
537;SDS011;254;48.524;8.926;2022-11-20T04:10:03;3.9;;;2.7;;
537;SDS011;254;48.524;8.926;2022-11-20T04:11:17;3.8;;;2.6;;
537;SDS011;254;48.524;8.926;2022-11-20T04:12:02;3.1;;;2.7;;
537;SDS011;254;48.524;8.926;2022-11-20T04:13:02;3.6;;;3.1;;
537;SDS011;254;48.524;8.926;2022-11-20T04:14:03;3.2;;;2.4;;
537;SDS011;254;48.524;8.926;2022-11-20T04:15:02;5.7;;;2.4;;
537;SDS011;254;48.524;8.926;2022-11-20T04:16:04;3.4;;;2.5;;
537;SDS011;254;48.524;8.926;2022-11-20T04:17:03;3.3;;;2.3;;
537;SDS011;254;48.524;8.926;2022-11-20T04:18:02;3.2;;;2.3;;
537;SDS011;254;48.524;8.926;2022-11-20T04:19:04;3.7;;;2.6;;
537;SDS011;254;48.524;8.926;2022-11-20T04:20:03;3.1;;;2.4;;
537;SDS011;254;48.524;8.926;2022-11-20T04:21:02;2.7;;;2.4;;
537;SDS011;254;48.524;8.926;2022-11-20T04:22:03;2.6;;;2.3;;
537;SDS011;254;48.524;8.926;2022-11-20T04:23:03;4.2;;;2.5;;
537;SDS011;254;48.524;8.926;2022-11-20T04:24:02;2.9;;;2.4;;
537;SDS011;254;48.524;8.926;2022-11-20T04:25:03;4.8;;;2.3;;
537;SDS011;254;48.524;8.926;2022-11-20T04:26:03;2.8;;;2.4;;
537;SDS011;254;48.524;8.926;2022-11-20T04:27:03;2.9;;;2.3;;
537;SDS011;254;48.524;8.926;2022-11-20T04:28:03;3.7;;;2.5;;
537;SDS011;254;48.524;8.926;2022-11-20T04:29:01;3.6;;;2.5;;
537;SDS011;254;48.524;8.926;2022-11-20T04:30:02;3.6;;;2.5;;
537;SDS011;254;48.524;8.926;2022-11-20T04:31:03;2.8;;;2.3;;
537;SDS011;254;48.524;8.926;2022-11-20T04:32:02;3.3;;;2.4;;
537;SDS011;254;48.524;8.926;2022-11-20T04:33:02;3.0;;;2.3;;
537;SDS011;254;48.524;8.926;2022-11-20T04:34:03;3.1;;;2.3;;
537;SDS011;254;48.524;8.926;2022-11-20T04:35:02;2.9;;;2.3;;
537;SDS011;254;48.524;8.926;2022-11-20T04:36:02;2.6;;;2.2;;
537;SDS011;254;48.524;8.926;2022-11-20T04:37:02;2.5;;;2.3;;
537;SDS011;254;48.524;8.926;2022-11-20T04:38:02;2.7;;;2.1;;
537;SDS011;254;48.524;8.926;2022-11-20T04:39:03;3.4;;;2.5;;
537;SDS011;254;48.524;8.926;2022-11-20T04:40:02;3.3;;;2.4;;
537;SDS011;254;48.524;8.926;2022-11-20T04:41:03;3.3;;;2.2;;
537;SDS011;254;48.524;8.926;2022-11-20T04:42:02;2.9;;;2.3;;
537;SDS011;254;48.524;8.926;2022-11-20T04:43:02;4.1;;;2.2;;
537;SDS011;254;48.524;8.926;2022-11-20T04:44:03;2.5;;;2.0;;
537;SDS011;254;48.524;8.926;2022-11-20T04:45:02;3.8;;;2.2;;
537;SDS011;254;48.524;8.926;2022-11-20T04:46:02;2.9;;;2.4;;
537;SDS011;254;48.524;8.926;2022-11-20T04:47:02;3.5;;;2.2;;
537;SDS011;254;48.524;8.926;2022-11-20T04:48:02;2.3;;;2.0;;
537;SDS011;254;48.524;8.926;2022-11-20T04:49:03;3.0;;;2.4;;
537;SDS011;254;48.524;8.926;2022-11-20T04:50:02;4.0;;;2.4;;
537;SDS011;254;48.524;8.926;2022-11-20T04:51:02;2.7;;;2.2;;
537;SDS011;254;48.524;8.926;2022-11-20T04:52:02;5.0;;;2.4;;
537;SDS011;254;48.524;8.926;2022-11-20T04:53:02;3.3;;;2.3;;
537;SDS011;254;48.524;8.926;2022-11-20T04:54:02;6.8;;;2.2;;
537;SDS011;254;48.524;8.926;2022-11-20T04:55:03;4.2;;;2.5;;
537;SDS011;254;48.524;8.926;2022-11-20T04:56:02;4.4;;;2.3;;
537;SDS011;254;48.524;8.926;2022-11-20T04:57:02;3.4;;;2.3;;
537;SDS011;254;48.524;8.926;2022-11-20T04:58:02;2.6;;;2.1;;
537;SDS011;254;48.524;8.926;2022-11-20T04:59:02;3.1;;;2.2;;
537;SDS011;254;48.524;8.926;2022-11-20T05:00:02;4.4;;;2.6;;
537;SDS011;254;48.524;8.926;2022-11-20T05:01:02;2.6;;;2.3;;
537;SDS011;254;48.524;8.926;2022-11-20T05:02:02;3.1;;;2.2;;
537;SDS011;254;48.524;8.926;2022-11-20T05:03:02;4.0;;;2.5;;
537;SDS011;254;48.524;8.926;2022-11-20T05:04:02;2.6;;;2.3;;
537;SDS011;254;48.524;8.926;2022-11-20T05:05:03;3.0;;;2.3;;
537;SDS011;254;48.524;8.926;2022-11-20T05:06:02;3.0;;;2.2;;
537;SDS011;254;48.524;8.926;2022-11-20T05:07:02;4.7;;;2.4;;
537;SDS011;254;48.524;8.926;2022-11-20T05:08:03;2.7;;;2.3;;
537;SDS011;254;48.524;8.926;2022-11-20T05:09:02;2.8;;;2.1;;
537;SDS011;254;48.524;8.926;2022-11-20T05:10:02;4.7;;;2.1;;
537;SDS011;254;48.524;8.926;2022-11-20T05:11:02;3.2;;;2.2;;
537;SDS011;254;48.524;8.926;2022-11-20T05:12:02;2.9;;;2.2;;
537;SDS011;254;48.524;8.926;2022-11-20T05:13:02;3.3;;;2.1;;
537;SDS011;254;48.524;8.926;2022-11-20T05:14:02;3.6;;;2.4;;
537;SDS011;254;48.524;8.926;2022-11-20T05:15:03;4.1;;;2.7;;
537;SDS011;254;48.524;8.926;2022-11-20T05:16:02;3.0;;;2.3;;
537;SDS011;254;48.524;8.926;2022-11-20T05:17:03;2.7;;;2.4;;
537;SDS011;254;48.524;8.926;2022-11-20T05:18:01;3.1;;;2.2;;
537;SDS011;254;48.524;8.926;2022-11-20T05:19:02;3.2;;;2.3;;
537;SDS011;254;48.524;8.926;2022-11-20T05:20:03;3.4;;;2.3;;
537;SDS011;254;48.524;8.926;2022-11-20T05:21:02;4.3;;;2.3;;
537;SDS011;254;48.524;8.926;2022-11-20T05:22:02;2.7;;;2.4;;
537;SDS011;254;48.524;8.926;2022-11-20T05:23:02;3.0;;;2.4;;
537;SDS011;254;48.524;8.926;2022-11-20T05:24:02;3.0;;;2.2;;
537;SDS011;254;48.524;8.926;2022-11-20T05:25:03;3.4;;;2.4;;
537;SDS011;254;48.524;8.926;2022-11-20T05:26:02;3.6;;;2.3;;
537;SDS011;254;48.524;8.926;2022-11-20T05:27:02;3.0;;;2.1;;
537;SDS011;254;48.524;8.926;2022-11-20T05:28:04;5.1;;;2.4;;
537;SDS011;254;48.524;8.926;2022-11-20T05:29:03;2.6;;;2.1;;
537;SDS011;254;48.524;8.926;2022-11-20T05:30:01;3.8;;;2.4;;
537;SDS011;254;48.524;8.926;2022-11-20T05:31:05;2.8;;;2.3;;
537;SDS011;254;48.524;8.926;2022-11-20T05:32:04;3.0;;;2.3;;
537;SDS011;254;48.524;8.926;2022-11-20T05:33:02;4.4;;;2.2;;
537;SDS011;254;48.524;8.926;2022-11-20T05:34:03;2.8;;;2.0;;
537;SDS011;254;48.524;8.926;2022-11-20T05:35:02;2.7;;;2.2;;
537;SDS011;254;48.524;8.926;2022-11-20T05:36:04;2.7;;;2.0;;
537;SDS011;254;48.524;8.926;2022-11-20T05:37:03;2.8;;;2.1;;
537;SDS011;254;48.524;8.926;2022-11-20T05:38:02;4.4;;;2.4;;
537;SDS011;254;48.524;8.926;2022-11-20T05:39:02;3.3;;;2.4;;
537;SDS011;254;48.524;8.926;2022-11-20T05:40:03;3.2;;;2.5;;
537;SDS011;254;48.524;8.926;2022-11-20T05:41:03;3.1;;;2.4;;
537;SDS011;254;48.524;8.926;2022-11-20T05:42:02;3.1;;;2.5;;
537;SDS011;254;48.524;8.926;2022-11-20T05:43:02;2.9;;;2.3;;
537;SDS011;254;48.524;8.926;2022-11-20T05:44:02;4.8;;;2.4;;
537;SDS011;254;48.524;8.926;2022-11-20T05:45:04;4.6;;;2.8;;
537;SDS011;254;48.524;8.926;2022-11-20T05:46:02;3.3;;;2.6;;
537;SDS011;254;48.524;8.926;2022-11-20T05:47:02;3.1;;;2.4;;
537;SDS011;254;48.524;8.926;2022-11-20T05:48:02;3.3;;;2.5;;
537;SDS011;254;48.524;8.926;2022-11-20T05:49:02;3.1;;;2.3;;
537;SDS011;254;48.524;8.926;2022-11-20T05:50:02;2.3;;;2.0;;
537;SDS011;254;48.524;8.926;2022-11-20T05:51:03;2.9;;;2.4;;
537;SDS011;254;48.524;8.926;2022-11-20T05:52:03;3.8;;;2.2;;
537;SDS011;254;48.524;8.926;2022-11-20T05:53:02;3.2;;;2.1;;
537;SDS011;254;48.524;8.926;2022-11-20T05:54:02;3.2;;;2.3;;
537;SDS011;254;48.524;8.926;2022-11-20T05:55:03;2.8;;;2.2;;
537;SDS011;254;48.524;8.926;2022-11-20T05:56:03;4.0;;;2.3;;
537;SDS011;254;48.524;8.926;2022-11-20T05:57:02;4.4;;;2.2;;
537;SDS011;254;48.524;8.926;2022-11-20T05:58:02;2.8;;;2.2;;
537;SDS011;254;48.524;8.926;2022-11-20T05:59:02;2.8;;;2.2;;
537;SDS011;254;48.524;8.926;2022-11-20T06:00:02;3.1;;;2.4;;
537;SDS011;254;48.524;8.926;2022-11-20T06:01:03;3.2;;;2.3;;
537;SDS011;254;48.524;8.926;2022-11-20T06:02:02;3.8;;;2.2;;
537;SDS011;254;48.524;8.926;2022-11-20T06:03:02;2.9;;;2.2;;
537;SDS011;254;48.524;8.926;2022-11-20T06:04:02;4.6;;;2.2;;
537;SDS011;254;48.524;8.926;2022-11-20T06:05:03;3.9;;;2.2;;
537;SDS011;254;48.524;8.926;2022-11-20T06:06:02;2.3;;;2.1;;
537;SDS011;254;48.524;8.926;2022-11-20T06:07:04;3.7;;;2.2;;
537;SDS011;254;48.524;8.926;2022-11-20T06:08:03;2.9;;;2.4;;
537;SDS011;254;48.524;8.926;2022-11-20T06:09:02;3.2;;;2.3;;
537;SDS011;254;48.524;8.926;2022-11-20T06:10:03;3.9;;;1.8;;
537;SDS011;254;48.524;8.926;2022-11-20T06:11:03;2.3;;;2.1;;
537;SDS011;254;48.524;8.926;2022-11-20T06:12:03;2.4;;;2.1;;
537;SDS011;254;48.524;8.926;2022-11-20T06:13:02;2.5;;;2.0;;
537;SDS011;254;48.524;8.926;2022-11-20T06:14:02;2.9;;;2.1;;
537;SDS011;254;48.524;8.926;2022-11-20T06:15:03;4.4;;;2.2;;
537;SDS011;254;48.524;8.926;2022-11-20T06:16:02;2.8;;;2.0;;
537;SDS011;254;48.524;8.926;2022-11-20T06:17:02;3.3;;;2.2;;
537;SDS011;254;48.524;8.926;2022-11-20T06:18:02;3.6;;;1.9;;
537;SDS011;254;48.524;8.926;2022-11-20T06:19:03;2.4;;;2.2;;
537;SDS011;254;48.524;8.926;2022-11-20T06:20:02;2.5;;;2.1;;
537;SDS011;254;48.524;8.926;2022-11-20T06:21:03;4.8;;;2.2;;
537;SDS011;254;48.524;8.926;2022-11-20T06:22:02;3.3;;;2.0;;
537;SDS011;254;48.524;8.926;2022-11-20T06:23:03;2.2;;;1.8;;
537;SDS011;254;48.524;8.926;2022-11-20T06:24:02;2.6;;;2.2;;
537;SDS011;254;48.524;8.926;2022-11-20T06:25:04;3.1;;;2.1;;
537;SDS011;254;48.524;8.926;2022-11-20T06:26:02;3.2;;;2.1;;
537;SDS011;254;48.524;8.926;2022-11-20T06:27:02;3.0;;;1.9;;
537;SDS011;254;48.524;8.926;2022-11-20T06:28:03;3.4;;;2.0;;
537;SDS011;254;48.524;8.926;2022-11-20T06:29:02;2.9;;;2.0;;
537;SDS011;254;48.524;8.926;2022-11-20T06:30:02;2.5;;;2.0;;
537;SDS011;254;48.524;8.926;2022-11-20T06:31:02;2.8;;;2.0;;
537;SDS011;254;48.524;8.926;2022-11-20T06:32:02;3.7;;;2.5;;
537;SDS011;254;48.524;8.926;2022-11-20T06:33:02;4.2;;;2.8;;
537;SDS011;254;48.524;8.926;2022-11-20T06:34:03;4.3;;;3.6;;
537;SDS011;254;48.524;8.926;2022-11-20T06:35:03;3.5;;;2.9;;
537;SDS011;254;48.524;8.926;2022-11-20T06:36:02;3.5;;;2.8;;
537;SDS011;254;48.524;8.926;2022-11-20T06:37:03;4.1;;;2.9;;